Bookmark and Share
Track history (hours):
 

Richard Maersk

Last reported at 2014-Apr-22 04:32 UTC. Time now 2014-Apr-24 09:29 UTC.
Position N 55°53' E 017°30'.

Length 171 m; draft 6.6 m.

Type: Ship. MMSI: 219967000.

NotesDate/timePositionNaut miles runAvg speedWind from/ knotsBaromVisibWave heightAir tempDewpointWater temp
2014-Apr-22 04:32N 55°53' E 017°30'7011.6
2014-Apr-21 22:32N 55°37' E 015°30'1111.4
2014-Apr-21 21:33N 55°32' E 015°12'1111.3
2014-Apr-21 20:33N 55°28' E 014°54'1110.9
2014-Apr-21 19:33N 55°22' E 014°37'1111.2
2014-Apr-21 18:33N 55°14' E 014°24'1010.0
2014-Apr-21 17:33N 55°10' E 014°08'1010.5
2014-Apr-21 16:33N 55°10' E 013°49'1110.7
2014-Apr-21 15:32N 55°10' E 013°30'1111.0
2014-Apr-21 14:31N 55°12' E 013°11'1111.5
2014-Apr-21 13:33N 55°15' E 012°52'1010.0
2014-Apr-21 12:33N 55°21' E 012°38'1211.8
2014-Apr-21 11:33N 55°32' E 012°42'1010.1
2014-Apr-21 10:33N 55°42' E 012°41'1111.2
2014-Apr-21 09:33N 55°54' E 012°39'1110.8
2014-Apr-21 08:33N 56°04' E 012°37'10 9.6
2014-Apr-21 07:33N 56°10' E 012°23'1111.1
2014-Apr-21 06:33N 56°16' E 012°06'30 9.1
2014-Apr-21 03:16N 56°45' E 011°52'6 8.5
2014-Apr-21 02:33N 56°51' E 011°48'8 8.3
2014-Apr-21 01:33N 56°59' E 011°43'8 8.0
2014-Apr-21 00:31N 57°06' E 011°38'10 8.1
2014-Apr-20 23:16N 57°16' E 011°32'6 8.2
2014-Apr-20 22:32N 57°22' E 011°28'8 7.8
2014-Apr-20 21:33N 57°29' E 011°23'8 7.6
2014-Apr-20 20:33N 57°34' E 011°12'8 7.7
2014-Apr-20 19:33N 57°38' E 011°00'8 8.3
2014-Apr-20 18:33N 57°44' E 010°50'8 7.6
2014-Apr-20 17:33N 57°51' E 010°44'8 7.9
2014-Apr-20 16:33N 57°52' E 010°29'8 8.2
2014-Apr-20 15:33N 57°51' E 010°14'49 9.2
2014-Apr-20 10:15N 57°27' E 008°55'227 8.7
2014-Apr-19 08:06N 54°23' E 004°57'4 8.0
2014-Apr-19 07:33N 54°20' E 004°52'7 7.3
2014-Apr-19 06:33N 54°14' E 004°45'171 6.8
2014-Apr-18 05:17N 51°43' E 002°31'6 8.5
2014-Apr-18 04:33N 51°38' E 002°25'9 8.9
2014-Apr-18 03:33N 51°31' E 002°16'9 9.2
2014-Apr-18 02:33N 51°23' E 002°07'9 8.8
2014-Apr-18 01:32N 51°14' E 002°06'10 9.8
2014-Apr-18 00:33N 51°10' E 001°53'9 9.3
2014-Apr-17 23:34N 51°04' E 001°41'8 7.6
2014-Apr-17 22:33N 50°58' E 001°33'38 6.3
2014-Apr-17 16:33N 50°30' E 000°55'8 8.3
2014-Apr-17 15:33N 50°27' E 000°42'9 8.7
2014-Apr-17 14:33N 50°24' E 000°29'8 8.3
2014-Apr-17 13:33N 50°22' E 000°17'11 9.0
2014-Apr-17 12:17N 50°20' W 000°01'3914.5
2014-Apr-17 09:33N 50°09' W 001°00'1717.1
2014-Apr-17 08:33N 50°04' W 001°26'1514.1
2014-Apr-17 07:29N 50°00' W 001°49'1410.8
2014-Apr-17 06:11N 49°57' W 002°10'6 8.8
2014-Apr-17 05:27N 49°55' W 002°19'7 7.8
2014-Apr-17 04:33N 49°53' W 002°30'7 6.8
2014-Apr-17 03:33N 49°51' W 002°40'  

Dump ship's entire track history

sailing weather and tide predictions

Richard Maersk — OYIZ2 — position and weather